Time;durP1;ratioP1;P1;durP2;ratioP2;P2;SDS_P1;SDS_P2;PMS_P1;PMS_P2;Temp;Humidity;BMP_temperature;BMP_pressure;BME280_temperature;BME280_humidity;BME280_pressure;Samples;Min_cycle;Max_cycle;Signal;HPM_P1;HPM_P2
2022/12/14 00:01:40;;;;;;;23.08;10.93;;;-0.40;99.90;;;;;;4179766;28;20113;-61
2022/12/14 00:03:41;;;;;;;27.52;12.07;;;-0.30;99.90;;;;;;4175442;28;20032;-61
2022/12/14 00:05:42;;;;;;;23.10;10.45;;;-0.30;99.90;;;;;;4174344;28;20530;-61
2022/12/14 00:07:42;;;;;;;22.17;10.77;;;-0.20;99.90;;;;;;4173797;28;20041;-61
2022/12/14 00:09:44;;;;;;;22.50;10.63;;;-0.20;99.90;;;;;;4188130;28;20063;-61
2022/12/14 00:11:45;;;;;;;25.40;10.63;;;-0.10;99.90;;;;;;4186755;28;20033;-61
2022/12/14 00:13:45;;;;;;;24.40;11.65;;;-0.10;99.90;;;;;;4183758;28;20156;-61
2022/12/14 00:15:46;;;;;;;27.02;11.98;;;-0.10;99.90;;;;;;4189604;28;20028;-61
2022/12/14 00:17:47;;;;;;;26.80;12.65;;;0.00;99.90;;;;;;4190865;28;20029;-61
2022/12/14 00:19:47;;;;;;;23.88;11.18;;;-0.10;99.90;;;;;;4185325;28;20037;-61
2022/12/14 00:21:48;;;;;;;22.63;11.32;;;-0.20;99.90;;;;;;4172830;28;20037;-61
2022/12/14 00:23:50;;;;;;;26.65;10.85;;;-0.10;99.90;;;;;;4183726;28;20535;-61
2022/12/14 00:25:50;;;;;;;24.25;10.50;;;-0.10;99.90;;;;;;4187815;28;20434;-61
2022/12/14 00:27:51;;;;;;;22.70;11.75;;;-0.10;99.90;;;;;;4187870;28;20123;-61
2022/12/14 00:29:52;;;;;;;26.88;11.57;;;0.00;99.90;;;;;;4187577;28;20028;-61
2022/12/14 00:31:52;;;;;;;22.67;10.82;;;-0.10;99.90;;;;;;4183419;28;20495;-61
2022/12/14 00:33:54;;;;;;;22.35;10.85;;;-0.10;99.90;;;;;;4188319;28;20048;-61
2022/12/14 00:35:54;;;;;;;31.83;11.00;;;0.00;99.90;;;;;;4188782;28;20037;-61
2022/12/14 00:37:55;;;;;;;24.08;11.20;;;-0.10;99.90;;;;;;4188226;28;20283;-61
2022/12/14 00:39:56;;;;;;;26.05;12.13;;;-0.20;99.90;;;;;;4190958;28;20049;-61
2022/12/14 00:41:56;;;;;;;23.65;10.50;;;-0.20;99.90;;;;;;4186903;28;20100;-61
2022/12/14 00:43:57;;;;;;;19.15;9.90;;;-0.30;99.90;;;;;;4183317;28;20060;-61
2022/12/14 00:45:58;;;;;;;18.02;9.23;;;-0.20;99.90;;;;;;4190216;28;20060;-61
2022/12/14 00:47:58;;;;;;;20.45;9.32;;;-0.20;99.90;;;;;;4191311;28;20036;-61
2022/12/14 00:49:59;;;;;;;20.75;9.75;;;-0.20;99.90;;;;;;4191786;28;20395;-61
2022/12/14 00:52:00;;;;;;;21.02;9.90;;;-0.10;99.90;;;;;;4177932;28;20372;-61
2022/12/14 00:54:00;;;;;;;21.13;10.02;;;0.00;99.90;;;;;;4186699;28;20045;-61
2022/12/14 00:56:06;;;;;;;22.02;10.82;;;0.00;99.90;;;;;;4171717;28;20055;-61
2022/12/14 00:58:08;;;;;;;21.30;9.65;;;0.10;99.90;;;;;;4188149;28;20055;-62
2022/12/14 01:00:10;;;;;;;17.73;9.25;;;0.10;99.90;;;;;;4190231;28;20053;-61
2022/12/14 01:02:10;;;;;;;16.38;9.15;;;0.10;99.90;;;;;;4187885;28;20059;-61
2022/12/14 01:04:17;;;;;;;18.42;9.15;;;0.20;99.90;;;;;;4190712;28;20391;-62
2022/12/14 01:06:20;;;;;;;21.17;9.77;;;0.20;99.90;;;;;;4183435;28;20106;-61
2022/12/14 01:08:22;;;;;;;19.60;9.98;;;0.20;99.90;;;;;;4193039;28;20028;-61
2022/12/14 01:10:22;;;;;;;26.23;10.85;;;0.10;99.90;;;;;;4187621;28;20041;-61
2022/12/14 01:12:23;;;;;;;20.13;9.55;;;0.00;99.90;;;;;;4187179;28;20032;-61
2022/12/14 01:14:24;;;;;;;17.60;8.65;;;0.00;99.90;;;;;;4177344;28;20055;-61
2022/12/14 01:16:24;;;;;;;19.02;9.43;;;-0.10;99.90;;;;;;4178905;28;20033;-61
2022/12/14 01:18:25;;;;;;;18.13;9.35;;;0.00;99.90;;;;;;4189758;28;20036;-61
2022/12/14 01:20:25;;;;;;;17.83;9.02;;;0.00;99.90;;;;;;4189112;28;20455;-61
2022/12/14 01:22:26;;;;;;;20.38;9.70;;;-0.10;99.90;;;;;;4175900;28;20158;-61
2022/12/14 01:24:27;;;;;;;20.48;9.93;;;-0.20;99.90;;;;;;4188594;28;20041;-61
2022/12/14 01:26:29;;;;;;;21.17;10.32;;;-0.20;99.90;;;;;;4175708;28;20075;-61
2022/12/14 01:28:29;;;;;;;20.17;9.77;;;-0.30;99.90;;;;;;4189886;28;20043;-61
2022/12/14 01:30:30;;;;;;;23.25;10.60;;;-0.40;99.90;;;;;;4193121;28;20060;-61
2022/12/14 01:32:32;;;;;;;23.52;9.82;;;-0.60;99.90;;;;;;4194388;28;20043;-61
2022/12/14 01:34:33;;;;;;;23.52;11.15;;;-0.70;99.90;;;;;;4189428;28;20035;-62
2022/12/14 01:36:35;;;;;;;19.88;10.10;;;-0.70;99.90;;;;;;4190028;28;20028;-61
2022/12/14 01:38:36;;;;;;;21.73;10.40;;;-0.70;99.90;;;;;;4181345;28;20515;-61
2022/12/14 01:40:37;;;;;;;18.35;9.20;;;-0.70;99.90;;;;;;4176307;28;20078;-62
2022/12/14 01:42:37;;;;;;;20.80;9.43;;;-0.70;99.90;;;;;;4177552;28;20435;-61
2022/12/14 01:44:38;;;;;;;21.50;10.07;;;-0.70;99.90;;;;;;4177329;28;20032;-62
2022/12/14 01:46:59;;;;;;;20.58;10.30;;;-0.70;99.90;;;;;;4174277;28;20071;-61
2022/12/14 01:49:16;;;;;;;21.27;10.90;;;-0.80;99.90;;;;;;4175730;28;20052;-61
2022/12/14 01:51:17;;;;;;;23.33;10.15;;;-0.80;99.90;;;;;;4177140;28;20033;-61
2022/12/14 01:53:21;;;;;;;20.10;10.15;;;-1.00;99.90;;;;;;4181391;28;20143;-61
2022/12/14 01:55:26;;;;;;;20.27;9.68;;;-1.00;99.90;;;;;;4176855;28;20041;-61
2022/12/14 01:57:33;;;;;;;19.77;9.23;;;-1.00;99.90;;;;;;4181957;28;20056;-61
2022/12/14 01:59:37;;;;;;;23.63;11.20;;;-1.00;99.90;;;;;;4177599;28;20045;-62
2022/12/14 02:01:38;;;;;;;23.27;10.40;;;-1.10;99.90;;;;;;4185877;28;20059;-62
2022/12/14 02:03:47;;;;;;;23.27;10.50;;;-1.10;99.90;;;;;;4193770;28;20032;-62
2022/12/14 02:05:56;;;;;;;22.90;9.77;;;-1.10;99.90;;;;;;4191988;28;20035;-61
2022/12/14 02:07:57;;;;;;;20.58;9.50;;;-1.10;99.90;;;;;;4183265;28;20041;-61
2022/12/14 02:10:01;;;;;;;21.20;10.82;;;-1.10;99.90;;;;;;4194511;28;20124;-61
2022/12/14 02:12:30;;;;;;;25.33;11.43;;;-1.20;99.90;;;;;;4192271;28;20070;-61
2022/12/14 02:14:33;;;;;;;22.27;10.45;;;-1.30;99.90;;;;;;4169728;28;20041;-61
2022/12/14 02:16:34;;;;;;;;;;;-1.30;99.90;;;;;;4188103;28;20103;-62
2022/12/14 02:18:34;;;;;;;21.75;9.48;;;-1.30;99.90;;;;;;4188036;28;19916;-61
2022/12/14 02:21:13;;;;;;;22.52;9.57;;;-1.20;99.90;;;;;;4184541;28;20040;-62
2022/12/14 02:23:30;;;;;;;22.67;10.35;;;-1.20;99.90;;;;;;4185109;28;20116;-61
2022/12/14 02:26:12;;;;;;;21.90;9.70;;;-1.30;99.90;;;;;;4176400;28;20041;-61
2022/12/14 02:28:22;;;;;;;19.85;9.75;;;-1.20;99.90;;;;;;4175939;28;20494;-61
2022/12/14 02:30:25;;;;;;;20.35;9.60;;;-1.20;99.90;;;;;;4173688;28;20073;-61
2022/12/14 02:32:59;;;;;;;19.55;9.55;;;-1.20;99.90;;;;;;4175866;28;20040;-61
2022/12/14 02:35:14;;;;;;;21.48;10.05;;;-1.20;99.90;;;;;;4160245;28;20041;-61
2022/12/14 02:37:54;;;;;;;20.63;9.52;;;-1.20;99.90;;;;;;4187646;28;20032;-61
2022/12/14 02:40:05;;;;;;;17.85;9.00;;;-1.20;99.90;;;;;;4185263;28;20045;-61
2022/12/14 02:42:14;;;;;;;22.25;9.73;;;-1.10;99.90;;;;;;4179292;28;20032;-61
2022/12/14 02:44:30;;;;;;;19.88;9.40;;;-1.00;99.90;;;;;;4189879;28;20494;-61
2022/12/14 02:46:47;;;;;;;20.42;9.20;;;-1.10;99.90;;;;;;4174898;28;20470;-61
2022/12/14 02:49:00;;;;;;;17.92;8.32;;;-1.00;99.90;;;;;;4175930;28;20041;-61
2022/12/14 02:51:22;;;;;;;20.63;8.70;;;-0.90;99.90;;;;;;4186219;28;20179;-61
2022/12/14 02:53:59;;;;;;;22.15;10.27;;;-1.00;99.90;;;;;;4192654;28;20528;-61
2022/12/14 02:56:05;;;;;;;20.20;9.30;;;-1.00;99.90;;;;;;4141117;28;20480;-60
2022/12/14 02:58:13;;;;;;;24.88;10.23;;;-1.00;99.90;;;;;;4186878;28;20112;-61
2022/12/14 03:00:14;;;;;;;20.15;9.02;;;-1.10;99.90;;;;;;4188501;28;20120;-61
2022/12/14 03:02:15;;;;;;;19.90;9.13;;;-1.10;99.90;;;;;;4192754;28;20036;-60
2022/12/14 03:04:16;;;;;;;19.50;8.77;;;-1.10;99.90;;;;;;4188833;28;20032;-61
2022/12/14 03:06:25;;;;;;;19.88;9.90;;;-1.10;99.90;;;;;;4186255;28;20063;-61
2022/12/14 03:08:30;;;;;;;19.30;9.40;;;-1.10;99.90;;;;;;4189229;28;20035;-61
2022/12/14 03:10:57;;;;;;;17.15;8.05;;;-1.00;99.90;;;;;;4181167;28;20045;-60
2022/12/14 03:13:22;;;;;;;17.02;8.40;;;-1.00;99.90;;;;;;4183682;28;20105;-60
2022/12/14 03:15:25;;;;;;;16.67;8.15;;;-0.90;99.90;;;;;;4183582;28;20640;-61
2022/12/14 03:17:30;;;;;;;17.95;7.47;;;-0.80;99.90;;;;;;4183859;28;20024;-61
2022/12/14 03:19:35;;;;;;;18.50;8.57;;;-0.80;99.90;;;;;;4187164;28;20041;-61
2022/12/14 03:21:40;;;;;;;19.90;9.73;;;-0.80;99.90;;;;;;4186909;28;20036;-61
2022/12/14 03:23:45;;;;;;;20.20;8.77;;;-0.80;99.90;;;;;;4190714;28;20037;-61
2022/12/14 03:26:00;;;;;;;21.10;10.05;;;-0.80;99.90;;;;;;4153748;28;20041;-60
2022/12/14 03:28:10;;;;;;;19.80;9.60;;;-0.90;99.90;;;;;;4172373;28;20041;-60
2022/12/14 03:30:15;;;;;;;18.20;8.65;;;-0.90;99.90;;;;;;4183642;28;20120;-62
2022/12/14 03:32:20;;;;;;;17.02;8.30;;;-0.90;99.90;;;;;;4190852;28;20131;-61
2022/12/14 03:34:28;;;;;;;17.55;8.85;;;-0.90;99.90;;;;;;4183185;28;20090;-60
2022/12/14 03:36:48;;;;;;;17.33;9.05;;;-0.90;99.90;;;;;;4179074;28;20442;-60
2022/12/14 03:38:54;;;;;;;16.17;7.95;;;-0.90;99.90;;;;;;4182275;28;20041;-61
2022/12/14 03:41:01;;;;;;;16.98;8.48;;;-0.90;99.90;;;;;;4190477;28;20036;-61
2022/12/14 03:43:16;;;;;;;16.90;8.00;;;-0.90;99.90;;;;;;4184249;28;20071;-60
2022/12/14 03:45:49;;;;;;;17.67;8.55;;;-0.90;99.90;;;;;;4186665;28;20098;-60
2022/12/14 03:48:29;;;;;;;16.58;7.53;;;-0.80;99.90;;;;;;4189959;28;20094;-60
2022/12/14 03:50:38;;;;;;;16.75;8.75;;;-0.80;99.90;;;;;;4179569;28;20042;-60
2022/12/14 03:52:52;;;;;;;14.63;7.30;;;-0.70;99.90;;;;;;4174276;28;20055;-63
2022/12/14 03:55:07;;;;;;;16.65;8.35;;;-0.70;99.90;;;;;;4182403;28;20481;-60
2022/12/14 03:57:26;;;;;;;16.42;7.72;;;-0.70;99.90;;;;;;4191074;28;20025;-61
2022/12/14 03:59:35;;;;;;;18.52;8.07;;;-0.60;99.90;;;;;;4189566;28;20547;-60
2022/12/14 04:02:02;;;;;;;17.95;7.75;;;-0.60;99.90;;;;;;4191377;28;20056;-60
2022/12/14 04:04:10;;;;;;;16.15;7.80;;;-0.50;99.90;;;;;;4175798;28;20033;-60
2022/12/14 04:06:28;;;;;;;20.38;7.90;;;-0.50;99.90;;;;;;4177391;28;20460;-61
2022/12/14 04:08:46;;;;;;;16.33;7.88;;;-0.50;99.90;;;;;;4179227;28;20060;-60
2022/12/14 04:20:37;;;;;;;17.30;8.48;;;-0.20;99.90;;;;;;4179506;28;20377;-60
2022/12/14 04:22:43;;;;;;;15.30;7.68;;;-0.10;99.90;;;;;;4182175;28;20041;-61
2022/12/14 04:27:21;;;;;;;14.38;7.45;;;-0.10;99.90;;;;;;4183911;28;20028;-61
2022/12/14 04:31:49;;;;;;;16.35;7.57;;;-0.10;99.90;;;;;;4186602;28;20043;-61
2022/12/14 04:33:55;;;;;;;17.58;8.68;;;-0.10;99.90;;;;;;4187567;28;20123;-61
2022/12/14 04:36:01;;;;;;;17.35;8.13;;;-0.20;99.90;;;;;;4188216;28;20162;-61
2022/12/14 04:38:14;;;;;;;16.80;8.50;;;-0.30;99.90;;;;;;4183864;28;20056;-61
2022/12/14 04:40:26;;;;;;;17.73;8.50;;;-0.30;99.90;;;;;;4178009;28;20461;-61
2022/12/14 04:42:32;;;;;;;19.48;8.70;;;-0.40;99.90;;;;;;4177614;28;20044;-60
2022/12/14 04:44:36;;;;;;;15.25;7.75;;;-0.40;99.90;;;;;;4181086;28;20043;-61
2022/12/14 04:46:39;;;;;;;17.67;8.10;;;-0.40;99.90;;;;;;4191177;28;20391;-62
2022/12/14 04:48:43;;;;;;;;;;;-0.50;99.90;;;;;;4186559;28;20037;-61
2022/12/14 04:50:47;;;;;;;17.67;7.65;;;-0.50;99.90;;;;;;4184748;28;19920;-61
2022/12/14 04:52:54;;;;;;;15.73;7.40;;;-0.50;99.90;;;;;;4194007;28;20474;-61
2022/12/14 04:55:19;;;;;;;16.65;7.88;;;-0.50;99.90;;;;;;4190975;28;20029;-61
2022/12/14 04:57:40;;;;;;;16.33;8.18;;;-0.50;99.90;;;;;;4189620;28;20043;-61
2022/12/14 04:59:41;;;;;;;16.25;8.27;;;-0.60;99.90;;;;;;4188626;28;20045;-61
2022/12/14 05:02:00;;;;;;;17.40;8.30;;;-0.70;99.90;;;;;;4191855;28;20047;-61
2022/12/14 05:04:36;;;;;;;15.82;8.50;;;-0.80;99.90;;;;;;4185397;28;20040;-60
2022/12/14 05:06:47;;;;;;;18.45;7.75;;;-0.80;99.90;;;;;;4149536;28;20115;-62
2022/12/14 05:08:57;;;;;;;17.98;8.23;;;-1.00;99.90;;;;;;4177032;28;20036;-61
2022/12/14 05:11:24;;;;;;;16.00;7.63;;;-1.00;99.90;;;;;;4179440;28;20068;-61
2022/12/14 05:13:40;;;;;;;18.08;7.53;;;-1.00;99.90;;;;;;4206613;28;20052;-60
2022/12/14 05:15:50;;;;;;;14.27;7.50;;;-0.90;99.90;;;;;;4178209;28;20112;-61
2022/12/14 05:17:52;;;;;;;16.48;7.40;;;-0.90;99.90;;;;;;4179788;28;20593;-60
2022/12/14 05:19:53;;;;;;;16.50;7.72;;;-0.90;99.90;;;;;;4178531;28;20728;-61
2022/12/14 05:21:54;;;;;;;17.38;8.02;;;-0.80;99.90;;;;;;4177270;28;20029;-61
2022/12/14 05:23:56;;;;;;;16.27;7.78;;;-0.80;99.90;;;;;;4183051;28;20036;-61
2022/12/14 05:25:56;;;;;;;14.35;7.30;;;-0.80;99.90;;;;;;4171095;28;20380;-61
2022/12/14 05:27:57;;;;;;;16.10;7.03;;;-0.70;99.90;;;;;;4179188;28;20041;-61
2022/12/14 05:29:57;;;;;;;16.38;7.35;;;-0.70;99.90;;;;;;4175662;28;20033;-60
2022/12/14 05:31:58;;;;;;;18.58;8.30;;;-0.80;99.90;;;;;;4178494;28;20134;-60
2022/12/14 05:33:59;;;;;;;17.23;7.90;;;-0.90;99.90;;;;;;4186474;28;20064;-61
2022/12/14 05:36:00;;;;;;;18.52;8.30;;;-0.90;99.90;;;;;;4193020;28;20043;-61
2022/12/14 05:38:00;;;;;;;18.05;7.50;;;-1.00;99.90;;;;;;4186118;28;20387;-61
2022/12/14 05:40:01;;;;;;;18.10;8.02;;;-1.00;99.90;;;;;;4193044;28;20466;-61
2022/12/14 05:42:01;;;;;;;17.20;8.13;;;-1.10;99.90;;;;;;4180797;28;20036;-61
2022/12/14 05:44:02;;;;;;;15.88;7.30;;;-1.10;99.90;;;;;;4178663;28;20154;-61
2022/12/14 05:46:03;;;;;;;15.15;6.82;;;-1.00;99.90;;;;;;4188713;28;20119;-61
2022/12/14 05:48:04;;;;;;;13.55;6.88;;;-1.00;99.90;;;;;;4182959;28;20035;-60
2022/12/14 05:50:05;;;;;;;18.05;7.85;;;-1.00;99.90;;;;;;4179010;28;20076;-60
2022/12/14 05:52:06;;;;;;;18.35;7.78;;;-0.90;99.90;;;;;;4184702;28;20040;-60
2022/12/14 05:54:07;;;;;;;14.73;6.57;;;-0.90;99.90;;;;;;4192805;28;20064;-61
2022/12/14 05:56:09;;;;;;;16.08;6.60;;;-0.90;99.90;;;;;;4182773;28;20029;-61
2022/12/14 05:58:10;;;;;;;15.50;6.65;;;-0.90;99.90;;;;;;4189275;28;20066;-61
2022/12/14 06:00:11;;;;;;;14.93;7.22;;;-0.90;99.90;;;;;;4190070;28;20071;-63
2022/12/14 06:02:12;;;;;;;14.57;6.70;;;-0.90;99.90;;;;;;4193067;28;20028;-61
2022/12/14 06:04:14;;;;;;;17.27;6.65;;;-0.90;99.90;;;;;;4192186;28;20063;-61
2022/12/14 06:06:15;;;;;;;13.10;6.35;;;-0.90;99.90;;;;;;4187915;28;20093;-61
2022/12/14 06:08:15;;;;;;;15.80;6.60;;;-0.80;99.90;;;;;;4187080;28;20746;-60
2022/12/14 06:10:16;;;;;;;12.02;5.65;;;-0.70;99.90;;;;;;4192024;28;20032;-61
2022/12/14 06:12:17;;;;;;;12.40;6.32;;;-0.70;99.90;;;;;;4187097;28;20427;-61
2022/12/14 06:14:17;;;;;;;13.13;6.03;;;-0.70;99.90;;;;;;4188721;28;20098;-61
2022/12/14 06:16:23;;;;;;;13.35;6.07;;;-0.70;99.90;;;;;;4186883;28;20115;-61
2022/12/14 06:18:23;;;;;;;14.23;6.78;;;-0.60;99.90;;;;;;4194998;28;20546;-61
2022/12/14 06:20:24;;;;;;;12.57;5.45;;;-0.50;99.90;;;;;;4189692;28;20040;-61
2022/12/14 06:22:25;;;;;;;13.75;6.07;;;-0.50;99.90;;;;;;4184901;28;21653;-61
2022/12/14 06:24:25;;;;;;;17.48;5.97;;;-0.40;99.90;;;;;;4186548;28;20029;-61
2022/12/14 06:26:28;;;;;;;11.85;6.22;;;-0.40;99.90;;;;;;4185394;28;20036;-61
2022/12/14 06:28:28;;;;;;;13.45;6.30;;;-0.30;99.90;;;;;;4185133;28;20043;-61
2022/12/14 06:30:29;;;;;;;12.15;5.68;;;-0.30;99.90;;;;;;4184619;28;20041;-61
2022/12/14 06:32:30;;;;;;;12.85;5.45;;;-0.30;99.90;;;;;;4192068;28;20021;-61
2022/12/14 06:34:30;;;;;;;15.68;6.65;;;-0.20;99.90;;;;;;4192468;28;20040;-61
2022/12/14 06:36:35;;;;;;;14.82;6.32;;;-0.20;99.90;;;;;;4186082;28;20033;-61
2022/12/14 06:38:36;;;;;;;13.65;7.10;;;-0.20;99.90;;;;;;4189571;28;21045;-60
2022/12/14 06:40:36;;;;;;;14.38;6.85;;;-0.20;99.90;;;;;;4188279;28;20124;-61
2022/12/14 06:42:37;;;;;;;14.57;6.70;;;-0.20;99.90;;;;;;4192563;28;20074;-61
2022/12/14 06:44:38;;;;;;;12.05;6.50;;;-0.20;99.90;;;;;;4193686;28;20035;-61
2022/12/14 06:46:38;;;;;;;13.82;5.97;;;-0.10;99.90;;;;;;4187840;28;20044;-63
2022/12/14 06:48:39;;;;;;;12.52;6.97;;;-0.10;99.90;;;;;;4191124;28;20105;-61
2022/12/14 06:50:40;;;;;;;16.95;7.35;;;0.00;99.90;;;;;;4183270;28;20037;-61
2022/12/14 06:52:42;;;;;;;14.20;6.70;;;0.00;99.90;;;;;;4174237;28;20037;-62
2022/12/14 06:54:42;;;;;;;14.32;6.85;;;0.00;99.90;;;;;;4181576;28;20029;-61
2022/12/14 06:56:45;;;;;;;18.70;7.30;;;0.10;99.90;;;;;;4180007;28;20144;-61
2022/12/14 06:58:46;;;;;;;;;;;0.00;99.90;;;;;;4193792;28;20043;-61
2022/12/14 07:00:46;;;;;;;12.80;6.30;;;0.00;99.90;;;;;;4190617;28;19979;-62
2022/12/14 07:02:47;;;;;;;17.25;6.68;;;0.00;99.90;;;;;;4191723;28;20029;-62
2022/12/14 07:04:48;;;;;;;11.75;6.05;;;0.00;99.90;;;;;;4193338;28;20039;-61
2022/12/14 07:06:48;;;;;;;13.63;6.07;;;0.10;99.90;;;;;;4191429;28;20128;-62
2022/12/14 07:08:53;;;;;;;14.43;6.88;;;0.00;99.90;;;;;;4191356;28;20037;-61
2022/12/14 07:10:53;;;;;;;16.38;7.90;;;0.10;99.90;;;;;;4188271;28;20037;-61
2022/12/14 07:12:54;;;;;;;18.98;8.73;;;0.00;99.90;;;;;;4173448;28;20403;-61
2022/12/14 07:14:54;;;;;;;19.88;9.45;;;0.00;99.90;;;;;;4183640;28;20057;-61
2022/12/14 07:16:55;;;;;;;14.90;8.65;;;-0.10;99.90;;;;;;4178041;28;20056;-61
2022/12/14 07:18:56;;;;;;;14.65;7.57;;;-0.20;99.90;;;;;;4177331;28;20044;-61
2022/12/14 07:20:59;;;;;;;13.48;7.05;;;-0.10;99.90;;;;;;4184015;28;20045;-61
2022/12/14 07:23:00;;;;;;;13.18;6.82;;;-0.10;99.90;;;;;;4192002;28;20042;-61
2022/12/14 07:25:01;;;;;;;11.90;6.43;;;-0.10;99.90;;;;;;4191726;28;20064;-61
2022/12/14 07:27:02;;;;;;;14.18;6.53;;;-0.10;99.90;;;;;;4190027;28;20499;-61
2022/12/14 07:29:03;;;;;;;13.02;5.72;;;0.00;99.90;;;;;;4190804;28;20029;-62
2022/12/14 07:31:06;;;;;;;11.52;5.40;;;0.00;99.90;;;;;;4190410;28;20147;-62
2022/12/14 07:33:07;;;;;;;13.57;5.90;;;0.00;99.90;;;;;;4189943;28;20037;-63
2022/12/14 07:35:08;;;;;;;15.02;6.57;;;0.00;99.90;;;;;;4193733;28;20471;-64
2022/12/14 07:37:08;;;;;;;12.98;6.40;;;0.00;99.90;;;;;;4189717;28;20033;-66
2022/12/14 07:39:13;;;;;;;14.38;6.90;;;0.00;99.90;;;;;;4192134;28;20066;-63
2022/12/14 07:41:19;;;;;;;12.25;5.68;;;-0.10;99.90;;;;;;4187347;28;20036;-62
2022/12/14 07:43:19;;;;;;;13.80;6.03;;;-0.10;99.90;;;;;;4191835;28;20064;-63
2022/12/14 07:45:20;;;;;;;11.70;5.85;;;0.00;99.90;;;;;;4181837;28;20029;-63
2022/12/14 07:47:20;;;;;;;15.05;7.40;;;0.00;99.90;;;;;;4174137;28;20036;-62
2022/12/14 07:49:21;;;;;;;12.65;6.25;;;0.00;99.90;;;;;;4175228;28;20488;-62
2022/12/14 07:51:27;;;;;;;13.93;6.75;;;0.00;99.90;;;;;;4191185;28;20453;-63
2022/12/14 07:53:28;;;;;;;15.05;6.68;;;0.00;99.90;;;;;;4189328;28;20485;-63
2022/12/14 07:55:28;;;;;;;13.80;6.72;;;0.10;99.90;;;;;;4192869;28;20037;-64
2022/12/14 07:57:31;;;;;;;13.00;6.25;;;0.00;99.90;;;;;;4185562;28;20090;-64
2022/12/14 07:59:33;;;;;;;15.73;6.70;;;0.00;99.90;;;;;;4191576;28;20548;-64
2022/12/14 08:01:35;;;;;;;14.93;6.55;;;0.00;99.90;;;;;;4189135;28;20399;-63
2022/12/14 08:03:37;;;;;;;16.08;7.25;;;0.00;99.90;;;;;;4190576;28;20032;-64
2022/12/14 08:05:39;;;;;;;14.50;6.88;;;-0.10;99.90;;;;;;4191853;28;20070;-63
2022/12/14 08:07:39;;;;;;;11.85;5.97;;;-0.20;99.90;;;;;;4192133;28;20060;-64
2022/12/14 08:09:40;;;;;;;16.90;7.25;;;-0.20;99.90;;;;;;4191033;28;20039;-64
2022/12/14 08:11:40;;;;;;;13.75;5.80;;;-0.20;99.90;;;;;;4188166;28;20028;-64
2022/12/14 08:13:42;;;;;;;16.00;6.90;;;-0.20;99.90;;;;;;4185053;28;20049;-63
2022/12/14 08:15:42;;;;;;;12.77;6.67;;;-0.30;99.90;;;;;;4174201;28;20432;-64
2022/12/14 08:17:43;;;;;;;15.25;6.65;;;-0.40;99.90;;;;;;4181738;28;20028;-64
2022/12/14 08:19:43;;;;;;;13.02;6.35;;;-0.30;99.90;;;;;;4175358;28;20436;-63
2022/12/14 08:21:44;;;;;;;13.50;6.50;;;-0.30;99.90;;;;;;4190049;28;20033;-63
2022/12/14 08:23:45;;;;;;;12.52;5.97;;;-0.20;99.90;;;;;;4188323;28;20052;-64
2022/12/14 08:25:52;;;;;;;12.00;5.97;;;-0.20;99.90;;;;;;4190412;28;20059;-64
2022/12/14 08:27:53;;;;;;;11.15;5.50;;;-0.10;99.90;;;;;;4191986;28;20110;-63
2022/12/14 08:29:54;;;;;;;13.93;6.40;;;-0.10;99.90;;;;;;4190914;28;20040;-63
2022/12/14 08:31:55;;;;;;;13.38;5.75;;;-0.10;99.90;;;;;;4164234;28;20040;-63
2022/12/14 08:33:58;;;;;;;11.80;6.03;;;-0.20;99.90;;;;;;4187278;28;20028;-63
2022/12/14 08:36:12;;;;;;;13.38;6.30;;;-0.20;99.90;;;;;;4187395;28;20097;-63
2022/12/14 08:38:14;;;;;;;13.20;6.10;;;-0.20;99.90;;;;;;4179038;28;20036;-63
2022/12/14 08:40:15;;;;;;;20.70;6.57;;;-0.20;99.90;;;;;;4182537;28;20421;-63
2022/12/14 08:42:15;;;;;;;15.93;6.78;;;-0.30;99.90;;;;;;4185491;28;20051;-63
2022/12/14 08:44:16;;;;;;;13.02;6.13;;;-0.30;99.90;;;;;;4190556;28;20089;-63
2022/12/14 08:46:17;;;;;;;11.80;6.10;;;-0.30;99.90;;;;;;4174708;28;20780;-63
2022/12/14 08:48:18;;;;;;;13.70;6.45;;;-0.30;99.90;;;;;;4176702;28;20070;-64
2022/12/14 08:50:18;;;;;;;11.43;6.00;;;-0.30;99.90;;;;;;4175246;28;20383;-63
2022/12/14 08:52:20;;;;;;;11.80;5.63;;;-0.20;99.90;;;;;;4176906;28;20391;-63
2022/12/14 08:54:22;;;;;;;11.60;5.50;;;-0.20;99.90;;;;;;4175578;28;20045;-63
2022/12/14 08:56:25;;;;;;;;;;;-0.10;99.90;;;;;;4174998;28;20526;-63
2022/12/14 08:58:25;;;;;;;10.63;5.27;;;-0.10;99.90;;;;;;4184638;28;19909;-63
2022/12/14 09:00:26;;;;;;;11.50;5.50;;;0.00;99.90;;;;;;4183872;28;20339;-63
2022/12/14 09:02:27;;;;;;;12.18;5.65;;;0.10;99.90;;;;;;4192160;28;20041;-63
2022/12/14 09:04:27;;;;;;;11.65;5.88;;;0.10;99.90;;;;;;4187918;28;20036;-63
2022/12/14 09:06:28;;;;;;;12.77;5.32;;;0.20;99.90;;;;;;4185800;28;20046;-63
2022/12/14 09:08:29;;;;;;;13.15;6.68;;;0.20;99.90;;;;;;4190566;28;20024;-63
2022/12/14 09:10:29;;;;;;;12.50;6.13;;;0.30;99.90;;;;;;4187832;28;20036;-63
2022/12/14 09:12:30;;;;;;;12.50;6.50;;;0.30;99.90;;;;;;4188844;28;20032;-63
2022/12/14 09:14:32;;;;;;;13.00;6.63;;;0.40;99.90;;;;;;4184929;28;20060;-63
2022/12/14 09:16:33;;;;;;;14.43;6.97;;;0.40;99.90;;;;;;4186229;28;20041;-63
2022/12/14 09:18:33;;;;;;;13.43;6.22;;;0.50;99.90;;;;;;4189432;28;20036;-63
2022/12/14 09:20:34;;;;;;;16.00;7.20;;;0.50;99.90;;;;;;4215630;28;20039;-63
2022/12/14 09:22:35;;;;;;;13.68;6.32;;;0.50;99.90;;;;;;4182384;28;20037;-63
2022/12/14 09:24:35;;;;;;;18.40;7.13;;;0.50;99.90;;;;;;4189398;28;20044;-63
2022/12/14 09:26:36;;;;;;;13.35;6.88;;;0.60;99.90;;;;;;4171313;28;20036;-63
2022/12/14 09:28:38;;;;;;;16.20;6.78;;;0.60;99.90;;;;;;4190064;28;20558;-63
2022/12/14 09:30:39;;;;;;;15.13;6.13;;;0.60;99.90;;;;;;4192400;28;20096;-63
2022/12/14 09:32:40;;;;;;;16.17;7.07;;;0.60;99.90;;;;;;4193377;28;20037;-63
2022/12/14 09:34:41;;;;;;;16.70;6.93;;;0.70;99.90;;;;;;4185202;28;20057;-63
2022/12/14 09:36:42;;;;;;;14.43;6.90;;;0.70;99.90;;;;;;4173261;28;20033;-63
2022/12/14 09:38:43;;;;;;;15.43;7.72;;;0.70;99.90;;;;;;4179464;28;20044;-63
2022/12/14 09:40:51;;;;;;;16.40;7.47;;;0.70;99.90;;;;;;4174721;28;20079;-64
2022/12/14 09:43:04;;;;;;;14.20;6.88;;;0.80;99.90;;;;;;4193911;28;20040;-64
2022/12/14 09:45:25;;;;;;;18.15;8.23;;;0.80;99.90;;;;;;4190150;28;20041;-64
2022/12/14 09:47:40;;;;;;;17.90;7.63;;;0.80;99.90;;;;;;4193767;28;20039;-63
2022/12/14 09:49:47;;;;;;;21.48;8.68;;;0.80;99.90;;;;;;4194779;28;20037;-63
2022/12/14 09:51:48;;;;;;;22.15;9.05;;;0.70;99.90;;;;;;4195101;28;20033;-64
2022/12/14 09:53:52;;;;;;;17.83;7.70;;;0.60;99.90;;;;;;4193986;28;20024;-63
2022/12/14 09:55:55;;;;;;;15.00;6.97;;;0.60;99.90;;;;;;4181828;28;20037;-64
2022/12/14 09:57:58;;;;;;;;;;;0.60;99.90;;;;;;4178293;28;20071;-64
2022/12/14 09:59:58;;;;;;;;;;;0.50;99.90;;;;;;4178836;28;19952;-63
2022/12/14 10:02:14;;;;;;;14.45;6.45;;;0.60;99.90;;;;;;4178581;28;20257;-63
2022/12/14 10:04:42;;;;;;;21.25;7.43;;;0.60;99.90;;;;;;4179143;28;20033;-63
2022/12/14 10:07:08;;;;;;;14.82;6.88;;;0.60;99.90;;;;;;4191472;28;20064;-63
2022/12/14 10:09:35;;;;;;;15.82;7.38;;;0.50;99.90;;;;;;4202187;28;20544;-63
2022/12/14 10:12:12;;;;;;;14.45;7.28;;;0.50;99.90;;;;;;4198636;28;20025;-64
2022/12/14 10:14:49;;;;;;;16.65;7.47;;;0.40;99.90;;;;;;4202658;28;20052;-63
2022/12/14 10:17:02;;;;;;;15.35;6.30;;;0.50;99.90;;;;;;4174360;28;20052;-64
2022/12/14 10:19:25;;;;;;;15.18;6.30;;;0.50;99.90;;;;;;4192924;28;20089;-63
2022/12/14 10:21:32;;;;;;;;;;;0.50;99.90;;;;;;4194806;28;20036;-63
2022/12/14 10:23:34;;;;;;;11.95;5.72;;;0.60;99.90;;;;;;4190854;28;20405;-63
2022/12/14 10:25:36;;;;;;;15.73;7.15;;;0.60;99.90;;;;;;4178069;28;20448;-64
2022/12/14 10:27:39;;;;;;;14.85;6.78;;;0.60;99.90;;;;;;4177768;28;20433;-63
2022/12/14 10:29:47;;;;;;;14.90;6.82;;;0.70;99.90;;;;;;4194217;28;20114;-63
2022/12/14 10:32:10;;;;;;;16.70;6.63;;;0.70;99.90;;;;;;4189831;28;20036;-65
2022/12/14 10:34:19;;;;;;;17.17;6.78;;;0.80;99.90;;;;;;4198091;28;20040;-63
2022/12/14 10:36:38;;;;;;;15.45;7.05;;;0.80;99.90;;;;;;4178915;28;20044;-64
2022/12/14 10:38:57;;;;;;;17.42;7.25;;;0.80;99.90;;;;;;4193719;28;20064;-63
2022/12/14 10:41:21;;;;;;;16.45;7.10;;;0.80;99.90;;;;;;4177764;28;20069;-64
2022/12/14 10:43:41;;;;;;;16.48;6.93;;;0.80;99.90;;;;;;4184034;28;20040;-64
2022/12/14 10:46:09;;;;;;;18.50;8.57;;;0.80;99.90;;;;;;4192071;28;20036;-64
2022/12/14 10:48:20;;;;;;;19.65;8.20;;;0.70;99.90;;;;;;4192142;28;20043;-63
2022/12/14 10:50:39;;;;;;;15.50;6.82;;;0.70;99.90;;;;;;4193616;28;20522;-64
2022/12/14 10:52:41;;;;;;;17.20;7.90;;;0.60;99.90;;;;;;4178544;28;20068;-64
2022/12/14 10:54:53;;;;;;;17.73;8.13;;;0.60;99.90;;;;;;4177627;28;20053;-64
2022/12/14 10:56:54;;;;;;;18.20;9.05;;;0.50;99.90;;;;;;4188150;28;20462;-64
2022/12/14 10:59:16;;;;;;;15.05;7.57;;;0.40;99.90;;;;;;4194815;28;20039;-64
2022/12/14 11:01:17;;;;;;;14.38;7.53;;;0.50;99.90;;;;;;4161934;28;20030;-64
2022/12/14 11:03:17;;;;;;;15.13;7.75;;;0.50;99.90;;;;;;4162129;28;20044;-64
2022/12/14 11:05:26;;;;;;;16.73;7.53;;;0.60;99.90;;;;;;4171978;28;20492;-66